<?xml version="1.0" encoding="UTF-8" standalone="no" ?>
<gpx xmlns="http://www.topografix.com/GPX/1/1" xmlns:xsi="http://www.w3.org/2001/XMLSchema-instance" xsi:schemaLocation="http://www.topografix.com/GPX/1/1 http://www.topografix.com/GPX/1/1/gpx.xsd" version="1.1" creator="VisuGPX - https://www.visugpx.com">
  <metadata>
    <name>Montagne de Thiey, face Sud</name>
    <desc><![CDATA[Court mais beau et technique, avec vue mer. Le pied !]]></desc>
  </metadata>
  <trk>
    <name><![CDATA[ACTIVE LOG 004]]></name>
    <trkseg>
      <trkpt lat="43.71991" lon="6.86058">
        <ele>896.5668945</ele>
        <time>2012-04-06T10:55:06Z</time>
      </trkpt>
      <trkpt lat="43.72187" lon="6.8607">
        <ele>864.3625488</ele>
        <time>2012-04-06T10:59:08Z</time>
      </trkpt>
      <trkpt lat="43.72143" lon="6.86009">
        <ele>869.6499023</ele>
        <time>2012-04-06T10:59:40Z</time>
      </trkpt>
      <trkpt lat="43.72127" lon="6.86004">
        <ele>870.611084</ele>
        <time>2012-04-06T10:59:48Z</time>
      </trkpt>
      <trkpt lat="43.72128" lon="6.85986">
        <ele>872.5336914</ele>
        <time>2012-04-06T10:59:55Z</time>
      </trkpt>
      <trkpt lat="43.72131" lon="6.85982">
        <ele>872.0529785</ele>
        <time>2012-04-06T10:59:57Z</time>
      </trkpt>
      <trkpt lat="43.72268" lon="6.86031">
        <ele>881.185791</ele>
        <time>2012-04-06T11:01:00Z</time>
      </trkpt>
      <trkpt lat="43.7231" lon="6.86035">
        <ele>883.5888672</ele>
        <time>2012-04-06T11:01:20Z</time>
      </trkpt>
      <trkpt lat="43.72347" lon="6.86014">
        <ele>886.4729004</ele>
        <time>2012-04-06T11:01:39Z</time>
      </trkpt>
      <trkpt lat="43.7237" lon="6.85977">
        <ele>889.8374023</ele>
        <time>2012-04-06T11:01:56Z</time>
      </trkpt>
      <trkpt lat="43.72415" lon="6.85942">
        <ele>891.2792969</ele>
        <time>2012-04-06T11:02:18Z</time>
      </trkpt>
      <trkpt lat="43.72441" lon="6.85933">
        <ele>893.2021484</ele>
        <time>2012-04-06T11:02:30Z</time>
      </trkpt>
      <trkpt lat="43.72381" lon="6.8589">
        <ele>900.8925781</ele>
        <time>2012-04-06T11:03:15Z</time>
      </trkpt>
      <trkpt lat="43.72379" lon="6.85873">
        <ele>901.8540039</ele>
        <time>2012-04-06T11:03:26Z</time>
      </trkpt>
      <trkpt lat="43.72423" lon="6.85869">
        <ele>902.3344727</ele>
        <time>2012-04-06T11:03:45Z</time>
      </trkpt>
      <trkpt lat="43.72533" lon="6.85937">
        <ele>914.8317871</ele>
        <time>2012-04-06T11:05:00Z</time>
      </trkpt>
      <trkpt lat="43.7263" lon="6.85952">
        <ele>928.2902832</ele>
        <time>2012-04-06T11:06:15Z</time>
      </trkpt>
      <trkpt lat="43.7263" lon="6.85939">
        <ele>929.7321777</ele>
        <time>2012-04-06T11:06:23Z</time>
      </trkpt>
      <trkpt lat="43.72543" lon="6.85872">
        <ele>937.9033203</ele>
        <time>2012-04-06T11:07:26Z</time>
      </trkpt>
      <trkpt lat="43.72457" lon="6.85694">
        <ele>957.6105957</ele>
        <time>2012-04-06T11:09:20Z</time>
      </trkpt>
      <trkpt lat="43.72419" lon="6.85414">
        <ele>980.6821289</ele>
        <time>2012-04-06T11:11:53Z</time>
      </trkpt>
      <trkpt lat="43.72423" lon="6.85333">
        <ele>988.3728027</ele>
        <time>2012-04-06T11:12:40Z</time>
      </trkpt>
      <trkpt lat="43.72356" lon="6.85361">
        <ele>989.8146973</ele>
        <time>2012-04-06T11:13:08Z</time>
      </trkpt>
      <trkpt lat="43.72331" lon="6.8535">
        <ele>992.2180176</ele>
        <time>2012-04-06T11:13:23Z</time>
      </trkpt>
      <trkpt lat="43.72252" lon="6.85245">
        <ele>1006.6376953</ele>
        <time>2012-04-06T11:14:42Z</time>
      </trkpt>
      <trkpt lat="43.7213" lon="6.84995">
        <ele>1032.1125488</ele>
        <time>2012-04-06T11:17:25Z</time>
      </trkpt>
      <trkpt lat="43.721" lon="6.84809">
        <ele>1047.4936523</ele>
        <time>2012-04-06T11:19:09Z</time>
      </trkpt>
      <trkpt lat="43.7209" lon="6.84508">
        <ele>1067.6811523</ele>
        <time>2012-04-06T11:21:42Z</time>
      </trkpt>
      <trkpt lat="43.72099" lon="6.84333">
        <ele>1073.4494629</ele>
        <time>2012-04-06T11:22:53Z</time>
      </trkpt>
      <trkpt lat="43.72127" lon="6.84497">
        <ele>1088.3498535</ele>
        <time>2012-04-06T11:24:24Z</time>
      </trkpt>
      <trkpt lat="43.72232" lon="6.84842">
        <ele>1123.918457</ele>
        <time>2012-04-06T11:28:22Z</time>
      </trkpt>
      <trkpt lat="43.72263" lon="6.84926">
        <ele>1131.128418</ele>
        <time>2012-04-06T11:31:31Z</time>
      </trkpt>
      <trkpt lat="43.72246" lon="6.84735">
        <ele>1147.951416</ele>
        <time>2012-04-06T11:33:19Z</time>
      </trkpt>
      <trkpt lat="43.72251" lon="6.84513">
        <ele>1162.8518066</ele>
        <time>2012-04-06T11:35:23Z</time>
      </trkpt>
      <trkpt lat="43.72329" lon="6.84066">
        <ele>1204.6691895</ele>
        <time>2012-04-06T11:40:50Z</time>
      </trkpt>
      <trkpt lat="43.72362" lon="6.83726">
        <ele>1231.5861816</ele>
        <time>2012-04-06T11:44:02Z</time>
      </trkpt>
      <trkpt lat="43.72374" lon="6.8369">
        <ele>1233.0280762</ele>
        <time>2012-04-06T11:44:23Z</time>
      </trkpt>
      <trkpt lat="43.72369" lon="6.83802">
        <ele>1239.7573242</ele>
        <time>2012-04-06T11:45:21Z</time>
      </trkpt>
      <trkpt lat="43.72421" lon="6.84131">
        <ele>1267.635498</ele>
        <time>2012-04-06T11:48:23Z</time>
      </trkpt>
      <trkpt lat="43.7245" lon="6.84503">
        <ele>1299.3591309</ele>
        <time>2012-04-06T11:52:02Z</time>
      </trkpt>
      <trkpt lat="43.72454" lon="6.84545">
        <ele>1302.2429199</ele>
        <time>2012-04-06T11:52:25Z</time>
      </trkpt>
      <trkpt lat="43.72482" lon="6.8463">
        <ele>1309.9335938</ele>
        <time>2012-04-06T11:53:15Z</time>
      </trkpt>
      <trkpt lat="43.72543" lon="6.84586">
        <ele>1319.546875</ele>
        <time>2012-04-06T11:55:31Z</time>
      </trkpt>
      <trkpt lat="43.72606" lon="6.84561">
        <ele>1325.3146973</ele>
        <time>2012-04-06T11:56:20Z</time>
      </trkpt>
      <trkpt lat="43.72625" lon="6.84527">
        <ele>1326.7568359</ele>
        <time>2012-04-06T11:56:40Z</time>
      </trkpt>
      <trkpt lat="43.72658" lon="6.84503">
        <ele>1329.640625</ele>
        <time>2012-04-06T11:57:02Z</time>
      </trkpt>
      <trkpt lat="43.72662" lon="6.845">
        <ele>1329.640625</ele>
        <time>2012-04-06T11:57:05Z</time>
      </trkpt>
      <trkpt lat="43.72752" lon="6.84501">
        <ele>1332.5246582</ele>
        <time>2012-04-06T11:57:50Z</time>
      </trkpt>
      <trkpt lat="43.72791" lon="6.845">
        <ele>1331.5632324</ele>
        <time>2012-04-06T11:58:05Z</time>
      </trkpt>
      <trkpt lat="43.72832" lon="6.8455">
        <ele>1330.1213379</ele>
        <time>2012-04-06T11:58:21Z</time>
      </trkpt>
      <trkpt lat="43.72888" lon="6.84669">
        <ele>1333.4858398</ele>
        <time>2012-04-06T11:58:56Z</time>
      </trkpt>
      <trkpt lat="43.72927" lon="6.84714">
        <ele>1334.4472656</ele>
        <time>2012-04-06T11:59:17Z</time>
      </trkpt>
      <trkpt lat="43.72925" lon="6.84642">
        <ele>1345.0217285</ele>
        <time>2012-04-06T12:00:02Z</time>
      </trkpt>
      <trkpt lat="43.72918" lon="6.84547">
        <ele>1353.1928711</ele>
        <time>2012-04-06T12:03:33Z</time>
      </trkpt>
      <trkpt lat="43.72881" lon="6.84442">
        <ele>1364.2480469</ele>
        <time>2012-04-06T12:04:37Z</time>
      </trkpt>
      <trkpt lat="43.72881" lon="6.84262">
        <ele>1381.5517578</ele>
        <time>2012-04-06T12:06:25Z</time>
      </trkpt>
      <trkpt lat="43.72846" lon="6.84119">
        <ele>1392.1264648</ele>
        <time>2012-04-06T12:07:46Z</time>
      </trkpt>
      <trkpt lat="43.72896" lon="6.84178">
        <ele>1395.9716797</ele>
        <time>2012-04-06T12:08:32Z</time>
      </trkpt>
      <trkpt lat="43.72922" lon="6.84258">
        <ele>1401.2587891</ele>
        <time>2012-04-06T12:09:12Z</time>
      </trkpt>
      <trkpt lat="43.72934" lon="6.8429">
        <ele>1401.2587891</ele>
        <time>2012-04-06T12:09:26Z</time>
      </trkpt>
      <trkpt lat="43.7297" lon="6.8435">
        <ele>1412.7946777</ele>
        <time>2012-04-06T12:10:47Z</time>
      </trkpt>
      <trkpt lat="43.72979" lon="6.8436">
        <ele>1414.2365723</ele>
        <time>2012-04-06T12:10:57Z</time>
      </trkpt>
      <trkpt lat="43.72996" lon="6.84399">
        <ele>1417.6010742</ele>
        <time>2012-04-06T12:11:24Z</time>
      </trkpt>
      <trkpt lat="43.73094" lon="6.84539">
        <ele>1449.8054199</ele>
        <time>2012-04-06T12:14:46Z</time>
      </trkpt>
      <trkpt lat="43.73093" lon="6.84525">
        <ele>1452.2087402</ele>
        <time>2012-04-06T12:15:06Z</time>
      </trkpt>
      <trkpt lat="43.7309" lon="6.84217">
        <ele>1507.965332</ele>
        <time>2012-04-06T12:21:57Z</time>
      </trkpt>
      <trkpt lat="43.73149" lon="6.84312">
        <ele>1524.7883301</ele>
        <time>2012-04-06T12:24:14Z</time>
      </trkpt>
      <trkpt lat="43.73175" lon="6.8432">
        <ele>1543.0532227</ele>
        <time>2012-04-06T12:26:04Z</time>
      </trkpt>
      <trkpt lat="43.73172" lon="6.84339">
        <ele>1544.9758301</ele>
        <time>2012-04-06T12:33:16Z</time>
      </trkpt>
      <trkpt lat="43.73175" lon="6.84327">
        <ele>1542.092041</ele>
        <time>2012-04-06T12:34:29Z</time>
      </trkpt>
      <trkpt lat="43.73173" lon="6.84332">
        <ele>1542.5727539</ele>
        <time>2012-04-06T12:35:47Z</time>
      </trkpt>
      <trkpt lat="43.73158" lon="6.84308">
        <ele>1531.9980469</ele>
        <time>2012-04-06T12:36:18Z</time>
      </trkpt>
      <trkpt lat="43.73152" lon="6.84321">
        <ele>1528.152832</ele>
        <time>2012-04-06T12:36:35Z</time>
      </trkpt>
      <trkpt lat="43.73086" lon="6.84212">
        <ele>1507.0039063</ele>
        <time>2012-04-06T12:37:21Z</time>
      </trkpt>
      <trkpt lat="43.73084" lon="6.84216">
        <ele>1505.0812988</ele>
        <time>2012-04-06T12:37:25Z</time>
      </trkpt>
      <trkpt lat="43.73094" lon="6.84265">
        <ele>1499.3132324</ele>
        <time>2012-04-06T12:37:37Z</time>
      </trkpt>
      <trkpt lat="43.73098" lon="6.84315">
        <ele>1489.2194824</ele>
        <time>2012-04-06T12:37:46Z</time>
      </trkpt>
      <trkpt lat="43.73096" lon="6.84345">
        <ele>1486.3356934</ele>
        <time>2012-04-06T12:37:51Z</time>
      </trkpt>
      <trkpt lat="43.73092" lon="6.84428">
        <ele>1470.9545898</ele>
        <time>2012-04-06T12:38:07Z</time>
      </trkpt>
      <trkpt lat="43.73089" lon="6.84441">
        <ele>1465.6672363</ele>
        <time>2012-04-06T12:38:11Z</time>
      </trkpt>
      <trkpt lat="43.73092" lon="6.8455">
        <ele>1450.2861328</ele>
        <time>2012-04-06T12:38:44Z</time>
      </trkpt>
      <trkpt lat="43.73048" lon="6.84475">
        <ele>1455.328125</ele>
      </trkpt>
      <trkpt lat="43.72997" lon="6.84402">
        <ele>1437.6523438</ele>
      </trkpt>
      <trkpt lat="43.72975" lon="6.84351">
        <ele>1434.8554688</ele>
      </trkpt>
      <trkpt lat="43.72942" lon="6.84305">
        <ele>1426.6210938</ele>
      </trkpt>
      <trkpt lat="43.72899" lon="6.84187">
        <ele>1420.3398438</ele>
      </trkpt>
      <trkpt lat="43.72848" lon="6.84118">
        <ele>1408.5546875</ele>
      </trkpt>
      <trkpt lat="43.72841" lon="6.8412">
        <ele>1405.6171875</ele>
      </trkpt>
      <trkpt lat="43.72875" lon="6.84284">
        <ele>1383.9550781</ele>
        <time>2012-04-06T12:40:21Z</time>
      </trkpt>
      <trkpt lat="43.72874" lon="6.84416">
        <ele>1374.342041</ele>
        <time>2012-04-06T12:40:31Z</time>
      </trkpt>
      <trkpt lat="43.72878" lon="6.8446">
        <ele>1368.0932617</ele>
        <time>2012-04-06T12:40:35Z</time>
      </trkpt>
      <trkpt lat="43.72915" lon="6.84561">
        <ele>1356.5576172</ele>
        <time>2012-04-06T12:40:44Z</time>
      </trkpt>
      <trkpt lat="43.72923" lon="6.8469">
        <ele>1345.9831543</ele>
        <time>2012-04-06T12:40:54Z</time>
      </trkpt>
      <trkpt lat="43.72917" lon="6.84721">
        <ele>1340.215332</ele>
        <time>2012-04-06T12:40:59Z</time>
      </trkpt>
      <trkpt lat="43.72865" lon="6.84609">
        <ele>1335.4084473</ele>
        <time>2012-04-06T12:41:19Z</time>
      </trkpt>
      <trkpt lat="43.7286" lon="6.84597">
        <ele>1333.9665527</ele>
        <time>2012-04-06T12:41:21Z</time>
      </trkpt>
      <trkpt lat="43.72857" lon="6.84665">
        <ele>1330.6020508</ele>
        <time>2012-04-06T12:41:33Z</time>
      </trkpt>
      <trkpt lat="43.72909" lon="6.84834">
        <ele>1321.4692383</ele>
        <time>2012-04-06T12:41:54Z</time>
      </trkpt>
      <trkpt lat="43.72969" lon="6.84912">
        <ele>1314.2595215</ele>
        <time>2012-04-06T12:42:06Z</time>
      </trkpt>
      <trkpt lat="43.72982" lon="6.84992">
        <ele>1308.4916992</ele>
        <time>2012-04-06T12:42:13Z</time>
      </trkpt>
      <trkpt lat="43.73005" lon="6.85028">
        <ele>1305.1269531</ele>
        <time>2012-04-06T12:42:19Z</time>
      </trkpt>
      <trkpt lat="43.73034" lon="6.85036">
        <ele>1304.1657715</ele>
        <time>2012-04-06T12:42:24Z</time>
      </trkpt>
      <trkpt lat="43.73054" lon="6.85055">
        <ele>1302.2429199</ele>
        <time>2012-04-06T12:42:29Z</time>
      </trkpt>
      <trkpt lat="43.73093" lon="6.8515">
        <ele>1295.0332031</ele>
        <time>2012-04-06T12:42:41Z</time>
      </trkpt>
      <trkpt lat="43.73058" lon="6.85124">
        <ele>1287.3425293</ele>
        <time>2012-04-06T12:42:52Z</time>
      </trkpt>
      <trkpt lat="43.73001" lon="6.85164">
        <ele>1279.1713867</ele>
        <time>2012-04-06T12:43:05Z</time>
      </trkpt>
      <trkpt lat="43.72972" lon="6.8518">
        <ele>1266.6743164</ele>
        <time>2012-04-06T12:43:22Z</time>
      </trkpt>
      <trkpt lat="43.72982" lon="6.8518">
        <ele>1263.7902832</ele>
        <time>2012-04-06T12:43:27Z</time>
      </trkpt>
      <trkpt lat="43.72989" lon="6.85217">
        <ele>1260.4257813</ele>
        <time>2012-04-06T12:43:31Z</time>
      </trkpt>
      <trkpt lat="43.72994" lon="6.85225">
        <ele>1257.541748</ele>
        <time>2012-04-06T12:43:41Z</time>
      </trkpt>
      <trkpt lat="43.72975" lon="6.85234">
        <ele>1252.7351074</ele>
        <time>2012-04-06T12:43:48Z</time>
      </trkpt>
      <trkpt lat="43.72972" lon="6.85259">
        <ele>1252.2543945</ele>
        <time>2012-04-06T12:43:55Z</time>
      </trkpt>
      <trkpt lat="43.72947" lon="6.85284">
        <ele>1252.7351074</ele>
        <time>2012-04-06T12:44:08Z</time>
      </trkpt>
      <trkpt lat="43.7284" lon="6.85303">
        <ele>1241.1992188</ele>
        <time>2012-04-06T12:44:41Z</time>
      </trkpt>
      <trkpt lat="43.7282" lon="6.85266">
        <ele>1237.3540039</ele>
        <time>2012-04-06T12:44:49Z</time>
      </trkpt>
      <trkpt lat="43.72819" lon="6.85269">
        <ele>1235.9121094</ele>
        <time>2012-04-06T12:44:53Z</time>
      </trkpt>
      <trkpt lat="43.72828" lon="6.85282">
        <ele>1233.0280762</ele>
        <time>2012-04-06T12:44:58Z</time>
      </trkpt>
      <trkpt lat="43.72813" lon="6.85251">
        <ele>1227.7407227</ele>
        <time>2012-04-06T12:45:11Z</time>
      </trkpt>
      <trkpt lat="43.72791" lon="6.85256">
        <ele>1225.8181152</ele>
        <time>2012-04-06T12:45:20Z</time>
      </trkpt>
      <trkpt lat="43.72778" lon="6.8528">
        <ele>1212.3598633</ele>
        <time>2012-04-06T12:45:45Z</time>
      </trkpt>
      <trkpt lat="43.72767" lon="6.85324">
        <ele>1207.5532227</ele>
        <time>2012-04-06T12:46:00Z</time>
      </trkpt>
      <trkpt lat="43.72783" lon="6.85376">
        <ele>1200.8239746</ele>
        <time>2012-04-06T12:46:11Z</time>
      </trkpt>
      <trkpt lat="43.72745" lon="6.85347">
        <ele>1193.6140137</ele>
        <time>2012-04-06T12:46:29Z</time>
      </trkpt>
      <trkpt lat="43.72727" lon="6.85266">
        <ele>1183.0395508</ele>
        <time>2012-04-06T12:46:42Z</time>
      </trkpt>
      <trkpt lat="43.72717" lon="6.85296">
        <ele>1178.713623</ele>
        <time>2012-04-06T12:46:53Z</time>
      </trkpt>
      <trkpt lat="43.72673" lon="6.85096">
        <ele>1159.4873047</ele>
        <time>2012-04-06T12:47:34Z</time>
      </trkpt>
      <trkpt lat="43.72678" lon="6.85092">
        <ele>1157.5646973</ele>
        <time>2012-04-06T12:47:38Z</time>
      </trkpt>
      <trkpt lat="43.72656" lon="6.85417">
        <ele>1134.4931641</ele>
        <time>2012-04-06T12:48:47Z</time>
      </trkpt>
      <trkpt lat="43.72681" lon="6.85517">
        <ele>1126.8024902</ele>
        <time>2012-04-06T12:49:14Z</time>
      </trkpt>
      <trkpt lat="43.72661" lon="6.85484">
        <ele>1121.9958496</ele>
        <time>2012-04-06T12:49:53Z</time>
      </trkpt>
      <trkpt lat="43.7268" lon="6.85544">
        <ele>1117.6699219</ele>
        <time>2012-04-06T12:50:18Z</time>
      </trkpt>
      <trkpt lat="43.72622" lon="6.85465">
        <ele>1103.2502441</ele>
        <time>2012-04-06T12:51:11Z</time>
      </trkpt>
      <trkpt lat="43.72619" lon="6.85465">
        <ele>1101.3276367</ele>
        <time>2012-04-06T12:51:15Z</time>
      </trkpt>
      <trkpt lat="43.72592" lon="6.85406">
        <ele>1091.7143555</ele>
        <time>2012-04-06T12:51:35Z</time>
      </trkpt>
      <trkpt lat="43.72585" lon="6.8542">
        <ele>1085.4658203</ele>
        <time>2012-04-06T12:51:49Z</time>
      </trkpt>
      <trkpt lat="43.72572" lon="6.85369">
        <ele>1080.6591797</ele>
        <time>2012-04-06T12:52:08Z</time>
      </trkpt>
      <trkpt lat="43.72572" lon="6.85381">
        <ele>1078.7365723</ele>
        <time>2012-04-06T12:52:14Z</time>
      </trkpt>
      <trkpt lat="43.72564" lon="6.8536">
        <ele>1075.3718262</ele>
        <time>2012-04-06T12:52:34Z</time>
      </trkpt>
      <trkpt lat="43.72564" lon="6.85485">
        <ele>1067.6811523</ele>
        <time>2012-04-06T12:53:00Z</time>
      </trkpt>
      <trkpt lat="43.72601" lon="6.8561">
        <ele>1061.4328613</ele>
        <time>2012-04-06T12:53:25Z</time>
      </trkpt>
      <trkpt lat="43.72668" lon="6.85682">
        <ele>1051.8195801</ele>
        <time>2012-04-06T12:53:55Z</time>
      </trkpt>
      <trkpt lat="43.72597" lon="6.85658">
        <ele>1042.206543</ele>
        <time>2012-04-06T12:54:25Z</time>
      </trkpt>
      <trkpt lat="43.72539" lon="6.8559">
        <ele>1034.996582</ele>
        <time>2012-04-06T12:54:46Z</time>
      </trkpt>
      <trkpt lat="43.72534" lon="6.85581">
        <ele>1034.0351563</ele>
        <time>2012-04-06T12:54:48Z</time>
      </trkpt>
      <trkpt lat="43.72522" lon="6.85555">
        <ele>1029.2285156</ele>
        <time>2012-04-06T12:55:13Z</time>
      </trkpt>
      <trkpt lat="43.72628" lon="6.85752">
        <ele>1014.8088379</ele>
        <time>2012-04-06T12:56:29Z</time>
      </trkpt>
      <trkpt lat="43.72689" lon="6.85777">
        <ele>1008.079834</ele>
        <time>2012-04-06T12:56:43Z</time>
      </trkpt>
      <trkpt lat="43.72693" lon="6.85778">
        <ele>1004.2346191</ele>
        <time>2012-04-06T12:56:56Z</time>
      </trkpt>
      <trkpt lat="43.72669" lon="6.85785">
        <ele>1002.7922363</ele>
        <time>2012-04-06T12:57:05Z</time>
      </trkpt>
      <trkpt lat="43.72655" lon="6.85789">
        <ele>998.9470215</ele>
        <time>2012-04-06T12:57:08Z</time>
      </trkpt>
      <trkpt lat="43.72599" lon="6.85789">
        <ele>992.2180176</ele>
        <time>2012-04-06T12:57:20Z</time>
      </trkpt>
      <trkpt lat="43.7251" lon="6.8574">
        <ele>978.2788086</ele>
        <time>2012-04-06T12:57:41Z</time>
      </trkpt>
      <trkpt lat="43.72461" lon="6.85693">
        <ele>971.0688477</ele>
        <time>2012-04-06T12:57:51Z</time>
      </trkpt>
      <trkpt lat="43.72456" lon="6.85686">
        <ele>968.6655273</ele>
        <time>2012-04-06T12:57:57Z</time>
      </trkpt>
      <trkpt lat="43.72537" lon="6.85869">
        <ele>949.439209</ele>
        <time>2012-04-06T12:58:21Z</time>
      </trkpt>
      <trkpt lat="43.72584" lon="6.85923">
        <ele>942.7102051</ele>
        <time>2012-04-06T12:58:32Z</time>
      </trkpt>
      <trkpt lat="43.72622" lon="6.8594">
        <ele>941.2680664</ele>
        <time>2012-04-06T12:58:41Z</time>
      </trkpt>
      <trkpt lat="43.72621" lon="6.85952">
        <ele>938.3840332</ele>
        <time>2012-04-06T12:58:47Z</time>
      </trkpt>
      <trkpt lat="43.72528" lon="6.85932">
        <ele>924.9257813</ele>
        <time>2012-04-06T12:59:00Z</time>
      </trkpt>
      <trkpt lat="43.72439" lon="6.85878">
        <ele>912.9091797</ele>
        <time>2012-04-06T12:59:10Z</time>
      </trkpt>
      <trkpt lat="43.72384" lon="6.85867">
        <ele>912.9091797</ele>
        <time>2012-04-06T12:59:17Z</time>
      </trkpt>
      <trkpt lat="43.7238" lon="6.85891">
        <ele>912.4284668</ele>
        <time>2012-04-06T12:59:24Z</time>
      </trkpt>
      <trkpt lat="43.72433" lon="6.85929">
        <ele>905.6992188</ele>
        <time>2012-04-06T12:59:46Z</time>
      </trkpt>
      <trkpt lat="43.72431" lon="6.85937">
        <ele>902.8151855</ele>
        <time>2012-04-06T12:59:52Z</time>
      </trkpt>
      <trkpt lat="43.7239" lon="6.85955">
        <ele>900.4121094</ele>
        <time>2012-04-06T12:59:59Z</time>
      </trkpt>
      <trkpt lat="43.72346" lon="6.86012">
        <ele>898.0087891</ele>
        <time>2012-04-06T13:00:07Z</time>
      </trkpt>
      <trkpt lat="43.72315" lon="6.86034">
        <ele>895.6054688</ele>
        <time>2012-04-06T13:00:12Z</time>
      </trkpt>
      <trkpt lat="43.72235" lon="6.86026">
        <ele>889.8374023</ele>
        <time>2012-04-06T13:00:23Z</time>
      </trkpt>
      <trkpt lat="43.72175" lon="6.85986">
        <ele>884.550293</ele>
        <time>2012-04-06T13:00:33Z</time>
      </trkpt>
      <trkpt lat="43.72136" lon="6.8598">
        <ele>882.6276855</ele>
        <time>2012-04-06T13:00:39Z</time>
      </trkpt>
      <trkpt lat="43.72088" lon="6.86067">
        <ele>880.2243652</ele>
        <time>2012-04-06T13:00:51Z</time>
      </trkpt>
      <trkpt lat="43.71998" lon="6.8605">
        <ele>864.8432617</ele>
        <time>2012-04-06T13:01:27Z</time>
      </trkpt>
    </trkseg>
  </trk>
</gpx>